createdAt,value
2023-03-31T00:01:10.208Z,85.67
2023-03-31T00:03:44.124Z,85.31
2023-03-31T00:06:18.870Z,84.78
2023-03-31T00:08:52.561Z,85.73
2023-03-31T00:11:22.606Z,84.54
2023-03-31T00:13:50.809Z,83.58
2023-03-31T00:16:18.937Z,83.72
2023-03-31T00:18:50.939Z,84.96
2023-03-31T00:21:29.872Z,84.96
2023-03-31T00:24:02.505Z,83.77
2023-03-31T00:26:31.575Z,84.52
2023-03-31T00:29:00.442Z,85.19
2023-03-31T00:31:29.535Z,84.31
2023-03-31T00:33:58.324Z,82.94
2023-03-31T00:36:28.406Z,85.31
2023-03-31T00:38:59.275Z,83.56
2023-03-31T00:41:30.933Z,85.13
2023-03-31T00:44:14.370Z,85.80
2023-03-31T00:46:48.619Z,85.01
2023-03-31T00:49:22.924Z,86.33
2023-03-31T00:51:54.055Z,86.00
2023-03-31T00:54:26.055Z,84.88
2023-03-31T00:56:58.734Z,85.43
2023-03-31T00:59:31.145Z,84.74
2023-03-31T01:02:02.884Z,85.97
2023-03-31T01:04:36.521Z,85.50
2023-03-31T01:07:12.563Z,84.50
2023-03-31T01:09:42.166Z,86.50
2023-03-31T01:12:12.224Z,87.81
2023-03-31T01:14:40.404Z,85.97
2023-03-31T01:17:09.886Z,85.93
2023-03-31T01:19:52.024Z,86.30
2023-03-31T01:22:59.540Z,84.76
2023-03-31T01:26:03.316Z,86.12
2023-03-31T01:28:40.435Z,86.41
2023-03-31T01:31:50.790Z,85.91
2023-03-31T01:34:50.041Z,85.22
2023-03-31T01:38:01.810Z,84.44
2023-03-31T01:40:55.724Z,84.78
2023-03-31T01:43:30.528Z,85.29
2023-03-31T01:46:06.992Z,85.42
2023-03-31T01:48:47.902Z,85.29
2023-03-31T01:51:20.668Z,86.68
2023-03-31T01:53:52.928Z,86.26
2023-03-31T01:56:27.890Z,87.44
2023-03-31T01:59:02.836Z,87.24
2023-03-31T02:01:38.034Z,86.34
2023-03-31T02:04:12.346Z,85.57
2023-03-31T02:06:45.035Z,85.22
2023-03-31T02:09:17.532Z,86.88
2023-03-31T02:11:49.484Z,86.40
2023-03-31T02:14:22.080Z,84.18
2023-03-31T02:16:53.726Z,84.08
2023-03-31T02:19:23.523Z,84.79
2023-03-31T02:21:52.506Z,85.37
2023-03-31T02:24:24.448Z,84.91
2023-03-31T02:27:00.795Z,84.06
2023-03-31T02:29:29.242Z,84.93
2023-03-31T02:32:02.082Z,84.29
2023-03-31T02:34:30.624Z,84.84
2023-03-31T02:37:00.151Z,85.06
2023-03-31T02:39:34.209Z,84.69
2023-03-31T02:42:07.490Z,83.94
2023-03-31T02:44:36.668Z,83.58
2023-03-31T02:47:07.516Z,84.91
2023-03-31T02:49:36.625Z,83.69
2023-03-31T02:52:29.323Z,83.93
2023-03-31T02:55:16.523Z,85.40
2023-03-31T02:58:06.774Z,83.97
2023-03-31T03:00:49.316Z,85.38
2023-03-31T03:03:31.346Z,82.84
2023-03-31T03:06:07.408Z,84.71
2023-03-31T03:09:09.175Z,84.05
2023-03-31T03:11:48.034Z,84.48
2023-03-31T03:14:29.915Z,83.59
2023-03-31T03:17:02.784Z,84.16
2023-03-31T03:19:31.094Z,82.05
2023-03-31T03:21:59.616Z,83.29
2023-03-31T03:24:29.870Z,83.61
2023-03-31T03:26:58.608Z,82.63
2023-03-31T03:29:28.344Z,83.08
2023-03-31T03:31:56.615Z,83.40
2023-03-31T03:34:25.706Z,83.19
2023-03-31T03:36:53.834Z,82.79
2023-03-31T03:39:22.706Z,83.19
2023-03-31T03:41:50.837Z,82.81
2023-03-31T03:44:18.880Z,82.33
2023-03-31T03:46:48.377Z,81.32
2023-03-31T03:49:16.504Z,81.66
2023-03-31T03:51:44.602Z,81.12
2023-03-31T03:54:12.669Z,81.64
2023-03-31T03:56:40.725Z,81.32
2023-03-31T03:59:08.885Z,81.86
2023-03-31T04:01:37.389Z,81.32
2023-03-31T04:04:07.140Z,81.01
2023-03-31T04:06:35.583Z,82.69
2023-03-31T04:09:04.422Z,82.30
2023-03-31T04:11:33.395Z,83.15
2023-03-31T04:14:01.472Z,81.69
2023-03-31T04:16:29.866Z,83.42
2023-03-31T04:18:59.597Z,81.28
2023-03-31T04:21:30.797Z,82.82
2023-03-31T04:24:01.969Z,81.59
2023-03-31T04:26:39.116Z,81.51
2023-03-31T04:29:07.645Z,81.62
2023-03-31T04:31:38.816Z,80.04
2023-03-31T04:34:13.194Z,77.56
2023-03-31T04:36:47.329Z,81.84
2023-03-31T04:39:16.821Z,81.79
2023-03-31T04:41:45.560Z,81.00
2023-03-31T04:44:13.632Z,80.57
2023-03-31T04:46:41.917Z,81.52
2023-03-31T04:49:09.991Z,80.16
2023-03-31T04:51:38.078Z,81.65
2023-03-31T04:54:07.824Z,81.14
2023-03-31T04:56:36.090Z,81.62
2023-03-31T04:59:04.644Z,81.17
2023-03-31T05:01:36.517Z,80.53
2023-03-31T05:04:04.830Z,81.63
2023-03-31T05:06:32.957Z,81.08
2023-03-31T05:09:07.259Z,81.09
2023-03-31T05:11:36.953Z,81.20
2023-03-31T05:14:05.273Z,81.45
2023-03-31T05:16:33.378Z,81.60
2023-03-31T05:19:01.576Z,80.83
2023-03-31T05:21:30.749Z,82.20
2023-03-31T05:23:59.164Z,81.55
2023-03-31T05:26:27.459Z,81.87
2023-03-31T05:28:56.918Z,80.47
2023-03-31T05:31:25.007Z,81.05
2023-03-31T05:33:53.052Z,81.23
2023-03-31T05:36:23.793Z,81.23
2023-03-31T05:38:52.555Z,79.66
2023-03-31T05:41:21.278Z,79.93
2023-03-31T05:43:49.511Z,80.11
2023-03-31T05:46:19.547Z,80.65
2023-03-31T05:48:47.682Z,81.04
2023-03-31T05:51:15.728Z,79.68
2023-03-31T05:53:44.141Z,79.32
2023-03-31T05:56:12.271Z,79.02
2023-03-31T05:58:40.683Z,78.22
2023-03-31T06:01:11.682Z,79.21
2023-03-31T06:03:43.026Z,78.75
2023-03-31T06:06:13.152Z,78.53
2023-03-31T06:08:41.449Z,78.06
2023-03-31T06:11:12.251Z,77.42
2023-03-31T06:13:41.160Z,77.84
2023-03-31T06:16:11.336Z,75.24
2023-03-31T06:18:39.523Z,76.81
2023-03-31T06:21:11.663Z,77.42
2023-03-31T06:23:39.702Z,77.64
2023-03-31T06:26:09.522Z,77.88
2023-03-31T06:28:37.732Z,76.60
2023-03-31T06:31:07.973Z,76.13
2023-03-31T06:33:36.961Z,76.11
2023-03-31T06:36:05.946Z,75.97
2023-03-31T06:38:36.753Z,74.86
2023-03-31T06:41:05.380Z,74.88
2023-03-31T06:43:33.955Z,74.85
2023-03-31T06:46:02.485Z,77.26
2023-03-31T06:48:30.587Z,76.35
2023-03-31T06:51:01.636Z,74.93
2023-03-31T06:53:30.736Z,73.91
2023-03-31T06:56:00.470Z,74.29
2023-03-31T06:58:31.087Z,73.64
2023-03-31T07:00:59.946Z,71.14
2023-03-31T07:03:29.682Z,72.86
2023-03-31T07:05:57.849Z,72.08
2023-03-31T07:08:26.189Z,73.41
2023-03-31T07:10:57.866Z,74.35
2023-03-31T07:13:28.424Z,74.22
2023-03-31T07:15:57.030Z,73.52
2023-03-31T07:18:34.992Z,73.18
2023-03-31T07:21:06.514Z,71.11
2023-03-31T07:23:36.167Z,71.58
2023-03-31T07:26:04.266Z,71.32
2023-03-31T07:28:34.006Z,67.98
2023-03-31T07:31:02.148Z,69.51
2023-03-31T07:33:30.170Z,69.85
2023-03-31T07:36:10.734Z,70.71
2023-03-31T07:38:41.334Z,70.34
2023-03-31T07:41:11.984Z,69.33
2023-03-31T07:43:41.898Z,68.17
2023-03-31T07:46:16.595Z,70.28
2023-03-31T07:48:46.520Z,68.24
2023-03-31T07:51:15.371Z,70.06
2023-03-31T07:53:43.470Z,68.68
2023-03-31T07:56:11.730Z,69.29
2023-03-31T07:58:41.143Z,68.57
2023-03-31T08:01:09.434Z,70.63
2023-03-31T08:03:37.637Z,71.65
2023-03-31T08:06:06.192Z,69.93
2023-03-31T08:08:34.552Z,69.08
2023-03-31T08:11:02.634Z,67.31
2023-03-31T08:13:30.710Z,66.24
2023-03-31T08:16:00.289Z,67.71
2023-03-31T08:18:28.586Z,66.42
2023-03-31T08:20:56.734Z,65.09
2023-03-31T08:23:24.787Z,65.81
2023-03-31T08:25:52.931Z,65.23
2023-03-31T08:28:20.965Z,65.32
2023-03-31T08:30:49.266Z,65.25
2023-03-31T08:33:19.002Z,64.42
2023-03-31T08:35:47.121Z,63.71
2023-03-31T08:38:15.194Z,63.59
2023-03-31T08:40:43.504Z,62.86
2023-03-31T08:43:18.538Z,61.95
2023-03-31T08:45:48.897Z,60.44
2023-03-31T08:48:26.128Z,60.40
2023-03-31T08:50:59.878Z,60.53
2023-03-31T08:53:30.989Z,59.24
2023-03-31T08:56:01.544Z,59.56
2023-03-31T08:58:37.959Z,59.42
2023-03-31T09:01:17.132Z,60.41
2023-03-31T09:03:59.499Z,60.03
2023-03-31T09:06:38.194Z,60.52
2023-03-31T09:09:11.837Z,58.86
2023-03-31T09:11:45.562Z,58.19
2023-03-31T09:14:28.009Z,60.80
2023-03-31T09:17:08.382Z,58.51
2023-03-31T09:19:42.193Z,57.25
2023-03-31T09:22:17.737Z,58.52
2023-03-31T09:24:52.328Z,59.18
2023-03-31T09:27:22.105Z,58.14
2023-03-31T09:29:54.198Z,58.61
2023-03-31T09:32:24.267Z,61.56
2023-03-31T09:34:58.478Z,59.01
2023-03-31T09:37:31.386Z,58.62
2023-03-31T09:40:02.301Z,59.14
2023-03-31T09:42:30.466Z,58.55
2023-03-31T09:44:58.497Z,59.26
2023-03-31T09:47:33.498Z,58.35
2023-03-31T09:50:03.132Z,56.93
2023-03-31T09:52:33.546Z,57.58
2023-03-31T09:55:03.497Z,56.17
2023-03-31T09:57:34.477Z,57.60
2023-03-31T10:00:16.546Z,57.08
2023-03-31T10:02:50.169Z,57.07
2023-03-31T10:05:29.517Z,57.04
2023-03-31T10:08:20.217Z,56.22
2023-03-31T10:10:50.964Z,56.13
2023-03-31T10:13:22.242Z,56.19
2023-03-31T10:15:54.017Z,55.22
2023-03-31T10:18:32.721Z,55.02
2023-03-31T10:21:04.972Z,54.03
2023-03-31T10:23:35.410Z,55.81
2023-03-31T10:26:05.254Z,55.37
2023-03-31T10:28:35.843Z,54.72
2023-03-31T10:31:05.482Z,52.70
2023-03-31T10:33:35.857Z,52.42
2023-03-31T10:36:11.193Z,53.54
2023-03-31T10:38:45.312Z,52.93
2023-03-31T10:41:19.387Z,52.27
2023-03-31T10:43:51.631Z,52.10
2023-03-31T10:46:20.445Z,52.61
2023-03-31T10:48:48.687Z,51.43
2023-03-31T10:51:20.524Z,51.80
2023-03-31T10:53:49.865Z,51.22
2023-03-31T10:56:39.371Z,52.45
2023-03-31T10:59:23.765Z,52.08
2023-03-31T11:02:10.890Z,51.62
2023-03-31T11:04:48.769Z,51.89
2023-03-31T11:07:33.610Z,51.32
2023-03-31T11:10:17.956Z,50.84
2023-03-31T11:12:53.374Z,49.93
2023-03-31T11:15:26.810Z,50.68
2023-03-31T11:18:08.097Z,52.50
2023-03-31T11:20:42.953Z,54.19
2023-03-31T11:23:22.424Z,55.25
2023-03-31T11:25:59.794Z,54.90
2023-03-31T11:28:43.677Z,52.48
2023-03-31T11:31:28.836Z,51.44
2023-03-31T11:34:08.243Z,52.76
2023-03-31T11:37:11.940Z,51.57
2023-03-31T11:39:51.863Z,53.29
2023-03-31T11:42:27.278Z,53.28
2023-03-31T11:45:03.004Z,53.75
2023-03-31T11:47:37.891Z,54.78
2023-03-31T11:50:13.748Z,56.08
2023-03-31T11:52:44.658Z,55.88
2023-03-31T11:55:19.164Z,56.34
2023-03-31T11:57:52.642Z,56.50
2023-03-31T12:00:23.854Z,57.20
2023-03-31T12:02:57.912Z,56.87
2023-03-31T12:05:29.192Z,56.86
2023-03-31T12:08:03.972Z,57.84
2023-03-31T12:10:36.757Z,57.78
2023-03-31T12:13:24.445Z,58.10
2023-03-31T12:16:01.451Z,58.35
2023-03-31T12:18:34.012Z,55.47
2023-03-31T12:21:05.151Z,56.15
2023-03-31T12:23:38.229Z,56.34
2023-03-31T12:26:14.808Z,56.04
2023-03-31T12:28:45.841Z,55.23
2023-03-31T12:31:22.127Z,54.75
2023-03-31T12:33:55.830Z,52.91
2023-03-31T12:36:35.287Z,51.71
2023-03-31T12:39:20.400Z,51.75
2023-03-31T12:42:06.172Z,51.76
2023-03-31T12:44:44.793Z,51.32
2023-03-31T12:47:36.955Z,52.23
2023-03-31T12:50:20.560Z,51.76
2023-03-31T12:52:58.252Z,52.87
2023-03-31T12:55:34.401Z,53.11
2023-03-31T12:58:39.740Z,52.30
2023-03-31T13:01:12.131Z,50.97
2023-03-31T13:03:49.357Z,52.98
2023-03-31T13:06:52.614Z,51.79
2023-03-31T13:09:52.310Z,51.50
2023-03-31T13:12:23.707Z,50.93
2023-03-31T13:14:54.370Z,49.94
2023-03-31T13:17:27.961Z,49.94
2023-03-31T13:19:58.005Z,50.63
2023-03-31T13:22:45.102Z,49.41
2023-03-31T13:25:46.833Z,49.42
2023-03-31T13:28:39.230Z,48.89
2023-03-31T13:31:08.291Z,48.12
2023-03-31T13:33:48.821Z,48.01
2023-03-31T13:36:54.321Z,46.49
2023-03-31T13:39:52.182Z,46.95
2023-03-31T13:42:39.038Z,45.64
2023-03-31T13:45:16.636Z,46.43
2023-03-31T13:47:59.850Z,46.30
2023-03-31T13:51:06.029Z,46.68
2023-03-31T13:53:54.548Z,47.36
2023-03-31T13:56:49.797Z,47.76
2023-03-31T13:59:32.447Z,47.13
2023-03-31T14:02:22.826Z,47.77
2023-03-31T14:05:24.964Z,50.29
2023-03-31T14:07:58.265Z,50.54
2023-03-31T14:10:30.811Z,50.45
2023-03-31T14:13:11.405Z,50.39
2023-03-31T14:15:43.592Z,52.39
2023-03-31T14:18:17.117Z,56.01
2023-03-31T14:20:57.502Z,59.28
2023-03-31T14:23:39.557Z,60.59
2023-03-31T14:26:16.032Z,63.33
2023-03-31T14:29:11.653Z,64.05
2023-03-31T14:31:46.335Z,64.03
2023-03-31T14:34:40.013Z,61.41
2023-03-31T14:37:11.608Z,62.07
2023-03-31T14:39:43.820Z,61.42
2023-03-31T14:42:15.014Z,61.62
2023-03-31T14:44:47.030Z,62.16
2023-03-31T14:47:16.859Z,61.03
2023-03-31T14:49:44.973Z,59.77
2023-03-31T14:52:19.561Z,57.00
2023-03-31T14:54:49.212Z,53.72
2023-03-31T14:57:20.828Z,51.71
2023-03-31T14:59:51.856Z,52.63
2023-03-31T15:02:30.225Z,52.54
2023-03-31T15:04:58.836Z,52.94
2023-03-31T15:07:28.646Z,52.75
2023-03-31T15:09:58.477Z,52.79
2023-03-31T15:12:29.434Z,52.49
2023-03-31T15:15:01.965Z,53.33
2023-03-31T15:17:33.260Z,52.89
2023-03-31T15:20:04.861Z,53.12
2023-03-31T15:22:33.020Z,52.48
2023-03-31T15:25:02.568Z,52.09
2023-03-31T15:27:37.800Z,51.50
2023-03-31T15:30:09.045Z,51.47
2023-03-31T15:32:39.157Z,52.73
2023-03-31T15:35:21.160Z,52.08
2023-03-31T15:37:53.155Z,52.67
2023-03-31T15:40:25.193Z,51.89
2023-03-31T15:43:06.733Z,51.18
2023-03-31T15:45:51.321Z,51.51
2023-03-31T15:48:28.482Z,51.45
2023-03-31T15:51:02.654Z,50.58
2023-03-31T15:53:38.612Z,51.72
2023-03-31T15:56:08.462Z,51.70
2023-03-31T15:59:04.521Z,51.92
2023-03-31T16:01:35.806Z,51.50
2023-03-31T16:04:08.542Z,50.77
2023-03-31T16:06:43.754Z,50.39
2023-03-31T16:09:16.246Z,51.16
2023-03-31T16:11:50.183Z,51.19
2023-03-31T16:14:22.166Z,51.19
2023-03-31T16:16:54.125Z,51.66
2023-03-31T16:19:26.235Z,51.40
2023-03-31T16:21:59.693Z,51.42
2023-03-31T16:24:32.880Z,52.00
2023-03-31T16:27:06.627Z,51.40
2023-03-31T16:29:35.580Z,51.49
2023-03-31T16:32:12.747Z,52.12
2023-03-31T16:34:56.079Z,52.14
2023-03-31T16:37:25.069Z,52.07
2023-03-31T16:39:53.646Z,52.40
2023-03-31T16:42:23.164Z,51.63
2023-03-31T16:45:09.503Z,51.55
2023-03-31T16:47:42.057Z,51.59
2023-03-31T16:50:12.498Z,52.06
2023-03-31T16:52:40.611Z,51.44
2023-03-31T16:55:09.371Z,51.93
2023-03-31T16:57:39.005Z,51.90
2023-03-31T17:00:08.569Z,52.47
2023-03-31T17:02:36.811Z,51.72
2023-03-31T17:05:12.566Z,52.00
2023-03-31T17:07:41.501Z,52.45
2023-03-31T17:10:10.696Z,51.99
2023-03-31T17:12:40.684Z,51.99
2023-03-31T17:15:10.298Z,51.60
2023-03-31T17:17:38.496Z,51.44
2023-03-31T17:20:08.183Z,51.62
2023-03-31T17:22:36.820Z,52.09
2023-03-31T17:25:05.759Z,52.04
2023-03-31T17:27:33.854Z,52.30
2023-03-31T17:32:34.407Z,52.40
2023-03-31T17:35:03.863Z,52.86
2023-03-31T17:37:32.019Z,52.78
2023-03-31T17:40:00.178Z,53.10
2023-03-31T17:42:28.208Z,53.19
2023-03-31T17:44:56.322Z,53.62
2023-03-31T17:47:26.271Z,53.64
2023-03-31T17:49:54.843Z,53.76
2023-03-31T17:52:23.697Z,53.76
2023-03-31T17:54:52.920Z,53.79
2023-03-31T17:57:21.422Z,53.98
2023-03-31T17:59:49.751Z,53.74
2023-03-31T18:02:18.867Z,53.77
2023-03-31T18:04:49.028Z,54.25
2023-03-31T18:07:19.041Z,54.20
2023-03-31T18:09:48.608Z,54.33
2023-03-31T18:12:16.696Z,54.43
2023-03-31T18:14:44.766Z,54.76
2023-03-31T18:17:15.146Z,54.92
2023-03-31T18:19:44.032Z,55.34
2023-03-31T18:22:13.966Z,55.95
2023-03-31T18:24:42.337Z,55.94
2023-03-31T18:27:10.796Z,55.92
2023-03-31T18:29:39.893Z,56.08
2023-03-31T18:32:08.198Z,56.18
2023-03-31T18:34:38.333Z,56.04
2023-03-31T18:37:06.692Z,56.70
2023-03-31T18:39:36.550Z,56.03
2023-03-31T18:42:05.350Z,56.48
2023-03-31T18:44:35.487Z,56.75
2023-03-31T18:47:03.819Z,56.72
2023-03-31T18:49:31.967Z,57.25
2023-03-31T18:52:02.498Z,57.64
2023-03-31T18:54:30.660Z,57.75
2023-03-31T18:57:01.662Z,57.89
2023-03-31T18:59:29.846Z,57.75
2023-03-31T19:01:57.974Z,57.12
2023-03-31T19:04:27.123Z,57.84
2023-03-31T19:06:56.512Z,57.36
2023-03-31T19:09:26.573Z,57.32
2023-03-31T19:11:54.814Z,57.31
2023-03-31T19:14:24.925Z,57.48
2023-03-31T19:16:53.277Z,57.43
2023-03-31T19:19:21.374Z,57.61
2023-03-31T19:21:50.122Z,57.33
2023-03-31T19:24:18.233Z,57.56
2023-03-31T19:26:46.428Z,57.61
2023-03-31T19:29:14.542Z,57.50
2023-03-31T19:31:45.303Z,57.51
2023-03-31T19:34:14.129Z,57.23
2023-03-31T19:36:42.180Z,57.46
2023-03-31T19:39:11.517Z,57.05
2023-03-31T19:41:39.728Z,57.23
2023-03-31T19:44:07.788Z,57.54
2023-03-31T19:46:35.956Z,57.74
2023-03-31T19:49:05.846Z,61.63
2023-03-31T19:51:34.015Z,64.23
2023-03-31T19:54:02.156Z,62.50
2023-03-31T19:56:31.637Z,59.20
2023-03-31T19:59:00.333Z,58.82
2023-03-31T20:01:29.124Z,58.66
2023-03-31T20:03:57.630Z,58.29
2023-03-31T20:06:28.767Z,59.10
2023-03-31T20:08:58.840Z,58.05
2023-03-31T20:11:28.384Z,57.61
2023-03-31T20:13:57.358Z,57.19
2023-03-31T20:16:27.515Z,56.76
2023-03-31T20:18:57.817Z,56.73
2023-03-31T20:21:29.073Z,56.72
2023-03-31T20:23:58.940Z,56.52
2023-03-31T20:26:29.612Z,56.11
2023-03-31T20:28:58.877Z,56.16
2023-03-31T20:31:28.942Z,56.43
2023-03-31T20:33:57.760Z,56.77
2023-03-31T20:36:31.641Z,56.94
2023-03-31T20:39:03.492Z,57.18
2023-03-31T20:41:31.980Z,57.03
2023-03-31T20:44:01.050Z,57.45
2023-03-31T20:46:29.607Z,57.25
2023-03-31T20:48:58.936Z,57.20
2023-03-31T20:51:30.004Z,57.50
2023-03-31T20:54:00.222Z,57.36
2023-03-31T20:56:30.346Z,57.56
2023-03-31T20:58:59.787Z,57.96
2023-03-31T21:01:29.762Z,58.16
2023-03-31T21:04:00.711Z,57.97
2023-03-31T21:06:32.653Z,58.28
2023-03-31T21:09:01.059Z,58.54
2023-03-31T21:11:29.578Z,59.48
2023-03-31T21:13:57.638Z,61.68
2023-03-31T21:16:25.927Z,67.81
2023-03-31T21:18:55.045Z,71.53
2023-03-31T21:21:24.967Z,69.38
2023-03-31T21:23:55.194Z,68.41
2023-03-31T21:26:24.985Z,66.66
2023-03-31T21:28:54.920Z,66.46
2023-03-31T21:31:24.940Z,67.56
2023-03-31T21:33:56.631Z,66.17
2023-03-31T21:36:26.792Z,65.49
2023-03-31T21:38:57.523Z,65.27
2023-03-31T21:41:27.240Z,65.72
2023-03-31T21:43:55.767Z,69.05
2023-03-31T21:46:26.592Z,71.38
2023-03-31T21:48:55.210Z,71.89
2023-03-31T21:51:24.414Z,69.60
2023-03-31T21:53:55.688Z,70.60
2023-03-31T21:56:27.782Z,70.05
2023-03-31T21:58:57.254Z,69.59
2023-03-31T22:01:25.332Z,69.80
2023-03-31T22:03:53.455Z,71.50
2023-03-31T22:06:22.472Z,71.26
2023-03-31T22:08:50.926Z,71.77
2023-03-31T22:11:18.966Z,71.86
2023-03-31T22:13:48.486Z,71.39
2023-03-31T22:16:19.018Z,71.39
2023-03-31T22:18:50.250Z,70.83
2023-03-31T22:21:20.684Z,69.14
2023-03-31T22:23:49.010Z,70.06
2023-03-31T22:26:17.050Z,69.72
2023-03-31T22:28:45.112Z,70.58
2023-03-31T22:31:14.547Z,69.69
2023-03-31T22:33:42.702Z,68.84
2023-03-31T22:36:11.242Z,69.85
2023-03-31T22:38:39.610Z,69.13
2023-03-31T22:41:07.898Z,70.02
2023-03-31T22:43:36.019Z,70.08
2023-03-31T22:46:05.852Z,69.48
2023-03-31T22:48:35.762Z,68.37
2023-03-31T22:51:06.049Z,70.11
2023-03-31T22:53:34.416Z,70.42
2023-03-31T22:56:07.319Z,69.58
2023-03-31T22:58:36.190Z,71.01
2023-03-31T23:01:05.935Z,70.86
2023-03-31T23:03:35.501Z,70.54
2023-03-31T23:06:05.253Z,70.93
2023-03-31T23:08:35.689Z,69.83
2023-03-31T23:11:06.084Z,68.91
2023-03-31T23:13:34.202Z,70.52
2023-03-31T23:16:06.880Z,69.72
2023-03-31T23:18:37.238Z,68.32
2023-03-31T23:21:06.701Z,70.43
2023-03-31T23:23:34.826Z,71.63
2023-03-31T23:26:03.337Z,72.07
2023-03-31T23:28:31.757Z,70.55
2023-03-31T23:30:59.859Z,71.02
2023-03-31T23:33:29.363Z,71.50
2023-03-31T23:36:01.482Z,72.03
2023-03-31T23:38:30.061Z,71.63
2023-03-31T23:40:58.493Z,72.24
2023-03-31T23:43:27.528Z,73.14
2023-03-31T23:45:56.407Z,72.75
2023-03-31T23:48:24.587Z,73.16
2023-03-31T23:50:52.766Z,71.93
2023-03-31T23:53:22.195Z,72.87
2023-03-31T23:55:58.103Z,71.56
2023-03-31T23:58:27.366Z,71.37
